Aérodrome :
LOGIN :

S'inscrire | Disclaimer

   EN    FR    IT 

 










Légende :    VFR   VFR Marginal   IFR   IFR Intensif   IFR Très Intensif
Visi : 
Plafond : 
>= 8 km
>= 3000ft
5 à 8 km
1000 à 3000 ft
1500m à 5 km
500 à 1000 ft
800 à 1500m
200 à 500 ft
< 800m
< 200 ft
Symboles :   Orages  Brouillard  Fortes neiges  Fortes précipitations  Vent > 20 kt
SIGMETs :   Divers  Orages  Givrage  Turbulence  Onde Orograph.  Cendres Volcan.







- Altitude de l'aérodrome : 245 ft
- Code IATA : BIQ
- Voir les cartes d'approche


LFBZ - Biarritz

DERNIER METAR :
  • 230230Z AUTO 23003KT 200V270 9999 FEW022 SCT036 BKN048 18/15 Q1021 NOSIG

METARs EXPIRÉS :
  • 230200Z AUTO VRB02KT 9999 FEW032 BKN038 OVC044 18/15 Q1021 NOSIG
  • 230130Z AUTO VRB03KT 9999 OVC041 18/15 Q1021 NOSIG
  • 230100Z AUTO VRB03KT 9999 FEW030 OVC038 18/15 Q1021 NOSIG
  • 230030Z AUTO VRB03KT 9999 OVC031 18/15 Q1021 NOSIG
  • 230000Z AUTO 22003KT 190V260 9999 BKN034 BKN058 18/15 Q1021 NOSIG

TAF TAF LFBZ
Valide du 23 à 00h jusqu'au 24 à 00h UTC


222300Z 2300/2324 28006KT 9999 SCT025 BKN050
Pas de NOTAMs connus pour ce terrain.



MET'MAP, la Météo Aéronautique d'un coup d'oeil ! - Copyright ORBIFLY Décembre 2007 - Disclaimer

ORBIFLY MET'MAP TEAM :

Programmation & Développement : Alexandra Zaïnal
Conception & Développement : Baudouin d'Aumeries
Co-Programmation & Développement : Marc-Olivier Méhu
Soutien technique & logistique : Manuel Goepfert

Contact : metmap@orbifly.com




SOURCES & CREDITS :

   NOAA